Time;durP1;ratioP1;P1;durP2;ratioP2;P2;SDS_P1;SDS_P2;PMS_P1;PMS_P2;Temp;Humidity;BMP_temperature;BMP_pressure;BME280_temperature;BME280_humidity;BME280_pressure;Samples;Min_cycle;Max_cycle;Signal;HPM_P1;HPM_P2
2024/03/23 00:00:39;;;;;;;6.95;3.88;;;;;;;8.92;100.00;96722.72;5012383;28;20410;-77
2024/03/23 00:03:09;;;;;;;12.20;4.05;;;;;;;8.91;100.00;96715.06;5012845;28;20874;-77
2024/03/23 00:05:39;;;;;;;7.88;4.28;;;;;;;8.86;100.00;96707.91;5012568;28;20491;-77
2024/03/23 00:08:09;;;;;;;7.80;4.20;;;;;;;8.88;100.00;96711.09;5013108;28;20393;-77
2024/03/23 00:10:39;;;;;;;6.43;3.63;;;;;;;8.84;100.00;96702.09;5012484;28;20400;-77
2024/03/23 00:13:08;;;;;;;7.97;4.18;;;;;;;8.83;100.00;96695.22;5010881;28;20414;-77
2024/03/23 00:15:38;;;;;;;10.88;4.30;;;;;;;8.82;100.00;96692.84;4993334;28;20410;-77
2024/03/23 00:18:08;;;;;;;5.80;3.30;;;;;;;8.79;100.00;96691.53;5002566;28;20435;-77
2024/03/23 00:20:38;;;;;;;10.68;4.32;;;;;;;8.76;100.00;96686.75;5007560;28;20415;-77
2024/03/23 00:23:08;;;;;;;7.38;3.90;;;;;;;8.73;100.00;96679.34;5012704;28;20411;-77
2024/03/23 00:25:37;;;;;;;8.75;4.07;;;;;;;8.70;100.00;96682.50;5012252;28;20555;-77
2024/03/23 00:28:10;;;;;;;8.82;3.88;;;;;;;8.69;100.00;96683.53;5014842;28;20401;-77
2024/03/23 00:30:39;;;;;;;12.27;4.18;;;;;;;8.68;100.00;96683.78;4998242;28;20430;-77
2024/03/23 00:33:09;;;;;;;9.07;3.78;;;;;;;8.64;100.00;96680.88;4992754;28;20910;-76
2024/03/23 00:35:39;;;;;;;6.07;3.85;;;;;;;8.58;100.00;96676.63;4992324;28;20413;-76
2024/03/23 00:38:09;;;;;;;6.38;3.63;;;;;;;8.56;100.00;96664.75;4994472;28;20409;-76
2024/03/23 00:40:38;;;;;;;10.18;4.07;;;;;;;8.53;100.00;96658.13;5012139;28;20420;-76
2024/03/23 00:43:08;;;;;;;8.77;4.13;;;;;;;8.50;100.00;96648.88;5012343;28;20401;-76
2024/03/23 00:45:38;;;;;;;8.02;3.92;;;;;;;8.47;100.00;96641.50;5012278;28;20416;-76
2024/03/23 00:48:07;;;;;;;9.30;4.35;;;;;;;8.43;100.00;96640.41;5012060;28;20403;-76
2024/03/23 00:50:37;;;;;;;8.23;4.07;;;;;;;8.38;100.00;96643.00;5011743;28;20766;-76
2024/03/23 00:53:07;;;;;;;7.50;3.95;;;;;;;8.34;100.00;96630.59;5012079;28;20401;-76
2024/03/23 00:55:34;;;;;;;8.75;4.22;;;;;;;8.32;100.00;96635.31;5012951;28;20414;-76
2024/03/23 00:58:00;;;;;;;7.15;3.85;;;;;;;8.30;100.00;96630.28;5011670;28;20396;-76
2024/03/23 01:00:27;;;;;;;8.25;4.38;;;;;;;8.28;100.00;96629.72;5003514;28;20424;-77
2024/03/23 01:02:53;;;;;;;8.60;4.10;;;;;;;8.26;100.00;96631.84;5011806;28;20924;-76
2024/03/23 01:05:19;;;;;;;8.35;4.25;;;;;;;8.23;100.00;96632.34;5011701;28;20794;-76
2024/03/23 01:07:45;;;;;;;9.20;5.00;;;;;;;8.25;100.00;96627.63;5012043;28;20409;-76
2024/03/23 01:10:12;;;;;;;9.70;4.38;;;;;;;8.27;100.00;96630.00;5011498;28;20454;-76
2024/03/23 01:12:39;;;;;;;7.80;4.40;;;;;;;8.30;100.00;96630.28;5011741;28;20403;-76
2024/03/23 01:15:06;;;;;;;9.63;4.17;;;;;;;8.30;100.00;96614.44;5011396;28;20486;-76
2024/03/23 01:17:32;;;;;;;7.30;4.50;;;;;;;8.29;100.00;96599.69;5011586;28;20987;-76
2024/03/23 01:19:58;;;;;;;12.43;4.70;;;;;;;8.35;100.00;96603.16;5013302;28;20420;-76
2024/03/23 01:22:24;;;;;;;8.55;4.68;;;;;;;8.35;100.00;96600.53;5015971;28;20397;-76
2024/03/23 01:24:50;;;;;;;8.77;5.13;;;;;;;8.44;100.00;96610.34;5015727;28;20404;-76
2024/03/23 01:27:16;;;;;;;8.02;4.32;;;;;;;8.50;100.00;96597.97;5015361;28;20405;-76
2024/03/23 01:29:44;;;;;;;10.00;5.20;;;;;;;8.62;100.00;96600.41;5015202;28;20503;-77
2024/03/23 01:32:10;;;;;;;8.25;4.60;;;;;;;8.74;100.00;96593.84;5015307;28;20401;-76
2024/03/23 01:34:36;;;;;;;5.45;3.88;;;;;;;8.85;100.00;96584.94;5015435;28;20488;-76
2024/03/23 01:37:03;;;;;;;7.73;4.30;;;;;;;8.90;100.00;96590.22;5015301;28;20483;-76
2024/03/23 01:39:29;;;;;;;7.32;4.60;;;;;;;8.99;100.00;96579.16;5015475;28;20773;-76
2024/03/23 01:41:55;;;;;;;6.27;3.83;;;;;;;9.04;100.00;96579.97;4998471;28;20501;-77
2024/03/23 01:44:21;;;;;;;8.82;3.88;;;;;;;9.03;100.00;96574.94;4995525;28;20402;-76
2024/03/23 01:46:49;;;;;;;5.47;3.60;;;;;;;9.05;100.00;96567.56;5002551;28;20777;-76
2024/03/23 01:49:15;;;;;;;7.72;3.35;;;;;;;9.11;100.00;96569.94;5014920;28;20405;-77
2024/03/23 01:51:43;;;;;;;5.90;3.65;;;;;;;9.10;100.00;96555.16;5015032;28;20774;-77
2024/03/23 01:54:10;;;;;;;7.05;3.95;;;;;;;9.21;100.00;96548.84;5014951;28;20400;-77
2024/03/23 01:56:36;;;;;;;6.05;3.60;;;;;;;9.20;100.00;96541.19;5014733;28;20404;-76
2024/03/23 01:59:02;;;;;;;6.15;3.92;;;;;;;9.25;100.00;96541.19;5014764;28;20762;-76
2024/03/23 02:01:29;;;;;;;6.32;3.83;;;;;;;9.23;100.00;96533.53;5015021;28;20877;-77
2024/03/23 02:03:57;;;;;;;7.55;3.78;;;;;;;9.23;100.00;96528.25;5014036;28;20396;-77
2024/03/23 02:06:24;;;;;;;4.90;3.43;;;;;;;9.27;100.00;96524.03;4995978;28;20457;-77
2024/03/23 02:08:50;;;;;;;7.90;3.60;;;;;;;9.25;100.00;96531.41;4995037;28;20518;-76
2024/03/23 02:11:16;;;;;;;4.60;3.10;;;;;;;9.19;100.00;96535.09;4994759;28;20403;-77
2024/03/23 02:13:42;;;;;;;8.15;3.67;;;;;;;9.13;100.00;96533.53;4994835;28;20460;-76
2024/03/23 02:16:09;;;;;;;5.80;3.83;;;;;;;9.09;100.00;96532.47;4994432;28;20407;-76
2024/03/23 02:18:35;;;;;;;5.60;3.50;;;;;;;9.04;100.00;96523.72;4994751;28;20433;-77
2024/03/23 02:21:03;;;;;;;7.50;3.93;;;;;;;9.03;100.00;96522.13;5004549;28;20420;-76
2024/03/23 02:23:31;;;;;;;5.97;3.40;;;;;;;8.96;100.00;96513.69;5014282;28;20956;-76
2024/03/23 02:25:57;;;;;;;4.72;3.10;;;;;;;8.89;100.00;96509.44;5014007;28;20944;-76
2024/03/23 02:28:23;;;;;;;6.35;3.47;;;;;;;8.86;100.00;96511.84;5014697;28;20913;-77
2024/03/23 02:30:49;;;;;;;5.13;3.30;;;;;;;8.79;100.00;96506.81;5012821;28;20413;-76
2024/03/23 02:33:16;;;;;;;7.50;3.60;;;;;;;8.80;100.00;96513.66;5014127;28;20407;-76
2024/03/23 02:35:43;;;;;;;6.00;3.60;;;;;;;8.77;100.00;96511.56;5006908;28;20398;-76
2024/03/23 02:38:09;;;;;;;7.43;3.90;;;;;;;8.71;100.00;96512.59;4994486;28;20824;-76
2024/03/23 02:40:37;;;;;;;6.32;3.55;;;;;;;8.69;100.00;96513.91;4996051;28;20422;-77
2024/03/23 02:43:03;;;;;;;9.30;4.28;;;;;;;8.70;100.00;96515.50;4995680;28;20406;-76
2024/03/23 02:45:29;;;;;;;6.00;3.88;;;;;;;8.71;100.00;96503.88;4994223;28;20398;-76
2024/03/23 02:47:56;;;;;;;7.60;3.95;;;;;;;8.74;100.00;96501.50;5002854;28;20389;-76
2024/03/23 02:50:23;;;;;;;5.78;3.88;;;;;;;8.71;100.00;96499.41;5013677;28;20886;-76
2024/03/23 02:52:49;;;;;;;7.75;3.92;;;;;;;8.73;100.00;96491.22;5014521;28;20488;-77
2024/03/23 02:55:15;;;;;;;12.77;4.43;;;;;;;8.74;100.00;96484.88;5014027;28;20435;-76
2024/03/23 02:57:43;;;;;;;6.72;3.95;;;;;;;8.70;100.00;96481.19;5014537;28;20396;-76
2024/03/23 03:00:10;;;;;;;7.40;4.03;;;;;;;8.71;100.00;96482.78;5014549;28;20457;-76
2024/03/23 03:02:37;;;;;;;5.00;3.50;;;;;;;8.69;100.00;96483.03;5014314;28;20413;-76
2024/03/23 03:05:04;;;;;;;6.07;3.83;;;;;;;8.72;100.00;96473.81;5016922;28;20400;-76
2024/03/23 03:07:31;;;;;;;5.80;3.70;;;;;;;8.73;100.00;96473.53;5014175;28;20400;-76
2024/03/23 03:09:57;;;;;;;4.68;3.42;;;;;;;8.77;100.00;96464.06;5014344;28;20409;-77
2024/03/23 03:12:23;;;;;;;7.38;3.55;;;;;;;8.78;100.00;96470.91;5014307;28;20396;-76
2024/03/23 03:14:50;;;;;;;5.57;3.35;;;;;;;8.76;100.00;96466.94;5013909;28;20417;-76
2024/03/23 03:17:16;;;;;;;5.28;3.42;;;;;;;8.79;100.00;96466.44;5006866;28;20393;-77
2024/03/23 03:19:43;;;;;;;5.70;3.65;;;;;;;8.74;100.00;96467.19;5013682;28;20413;-76
2024/03/23 03:22:09;;;;;;;6.25;3.70;;;;;;;8.64;100.00;96461.94;5013652;28;20427;-77
2024/03/23 03:24:35;;;;;;;5.80;3.72;;;;;;;8.60;100.00;96468.75;5013203;28;20408;-76
2024/03/23 03:27:03;;;;;;;8.43;3.88;;;;;;;8.57;100.00;96460.59;5012982;28;20765;-76
2024/03/23 03:29:35;;;;;;;5.32;3.40;;;;;;;8.49;100.00;96449.47;5013339;28;20411;-76
2024/03/23 03:32:03;;;;;;;5.82;3.90;;;;;;;8.47;100.00;96456.88;5013342;28;20416;-76
2024/03/23 03:34:29;;;;;;;4.88;3.33;;;;;;;8.42;100.00;96450.81;5013322;28;20916;-76
2024/03/23 03:36:56;;;;;;;7.00;3.78;;;;;;;8.39;100.00;96451.31;5012818;28;20904;-76
2024/03/23 03:39:22;;;;;;;6.47;3.42;;;;;;;8.37;100.00;96448.94;5012951;28;20911;-77
2024/03/23 03:41:48;;;;;;;7.30;4.03;;;;;;;8.30;100.00;96443.06;4994586;28;20410;-76
2024/03/23 03:44:14;;;;;;;6.38;3.58;;;;;;;8.25;100.00;96445.69;4993556;28;20437;-76
2024/03/23 03:46:41;;;;;;;5.60;3.20;;;;;;;8.18;100.00;96439.09;4993444;28;20403;-76
2024/03/23 03:49:08;;;;;;;6.15;4.00;;;;;;;8.12;100.00;96432.97;4993196;28;20502;-77
2024/03/23 03:51:34;;;;;;;8.52;3.60;;;;;;;8.09;100.00;96425.59;4992078;28;20406;-76
2024/03/23 03:54:01;;;;;;;6.30;3.25;;;;;;;8.04;100.00;96418.47;4993415;28;20407;-76
2024/03/23 03:56:27;;;;;;;6.68;3.63;;;;;;;8.01;100.00;96421.63;4993541;28;20464;-77
2024/03/23 03:58:54;;;;;;;7.47;4.15;;;;;;;7.98;100.00;96411.59;4993057;28;20927;-77
2024/03/23 04:01:23;;;;;;;6.95;4.10;;;;;;;7.99;100.00;96396.56;4993207;28;20824;-76
2024/03/23 04:03:49;;;;;;;9.43;3.67;;;;;;;7.97;100.00;96388.16;4992717;28;20804;-76
2024/03/23 04:06:20;;;;;;;9.60;3.60;;;;;;;7.94;100.00;96378.13;4992583;28;20406;-76
2024/03/23 04:08:46;;;;;;;7.55;3.58;;;;;;;7.86;100.00;96383.88;4992782;28;20898;-76
2024/03/23 04:11:12;;;;;;;6.95;3.65;;;;;;;7.86;100.00;96370.72;4992980;28;20445;-76
2024/03/23 04:13:41;;;;;;;9.20;3.85;;;;;;;7.84;100.00;96359.63;4992844;28;20401;-76
2024/03/23 04:16:09;;;;;;;8.15;4.00;;;;;;;7.83;100.00;96353.56;4994687;28;20410;-76
2024/03/23 04:18:35;;;;;;;5.38;3.88;;;;;;;7.87;100.00;96364.41;5012135;28;20411;-76
2024/03/23 04:21:01;;;;;;;6.57;3.90;;;;;;;7.87;100.00;96365.19;5011749;28;20416;-76
2024/03/23 04:23:29;;;;;;;6.80;3.90;;;;;;;7.93;100.00;96369.41;5012219;28;20890;-76
2024/03/23 04:25:55;;;;;;;6.57;3.90;;;;;;;7.98;100.00;96369.44;5011803;28;20409;-76
2024/03/23 04:28:22;;;;;;;6.93;3.65;;;;;;;8.01;100.00;96383.94;4993146;28;20403;-76
2024/03/23 04:30:48;;;;;;;6.72;3.65;;;;;;;8.06;100.00;96400.56;5000112;28;20876;-76
2024/03/23 04:33:14;;;;;;;6.10;4.00;;;;;;;8.13;100.00;96419.56;5012045;28;20467;-76
2024/03/23 04:35:41;;;;;;;6.22;3.75;;;;;;;8.24;100.00;96451.22;5011622;28;20404;-76
2024/03/23 04:38:07;;;;;;;6.72;4.05;;;;;;;8.35;100.00;96435.19;5013065;28;20428;-76
2024/03/23 04:40:34;;;;;;;13.43;4.35;;;;;;;8.47;100.00;96419.16;5011906;28;20759;-76
2024/03/23 04:43:01;;;;;;;11.43;4.95;;;;;;;8.57;100.00;96415.75;5012208;28;20440;-76
2024/03/23 04:45:27;;;;;;;7.70;4.28;;;;;;;8.64;100.00;96409.16;5011859;28;20451;-76
2024/03/23 04:47:53;;;;;;;5.40;3.35;;;;;;;8.68;100.00;96419.97;5011608;28;20404;-76
2024/03/23 04:50:19;;;;;;;8.05;4.30;;;;;;;8.73;100.00;96419.97;5011611;28;20406;-76
2024/03/23 04:52:45;;;;;;;9.27;4.22;;;;;;;8.79;100.00;96434.78;5012102;28;20500;-76
2024/03/23 04:55:11;;;;;;;7.43;4.32;;;;;;;8.83;100.00;96433.97;5010795;28;20408;-76
2024/03/23 04:57:39;;;;;;;7.82;4.57;;;;;;;8.88;100.00;96435.81;5011585;28;20471;-76
2024/03/23 05:00:16;;;;;;;12.80;6.05;;;;;;;8.92;100.00;96431.63;5011548;28;20417;-76
2024/03/23 05:02:43;;;;;;;14.07;7.85;;;;;;;8.93;100.00;96447.19;5011190;28;20471;-75
2024/03/23 05:05:10;;;;;;;21.13;9.30;;;;;;;8.91;100.00;96446.66;5011535;28;20885;-76
2024/03/23 05:07:36;;;;;;;27.05;10.90;;;;;;;8.90;100.00;96445.06;5011836;28;20397;-75
2024/03/23 05:10:03;;;;;;;23.30;12.77;;;;;;;8.97;100.00;96451.94;5003216;28;20811;-75
2024/03/23 05:12:29;;;;;;;24.98;11.85;;;;;;;8.95;100.00;96451.41;5011694;28;20451;-76
2024/03/23 05:14:56;;;;;;;26.90;13.37;;;;;;;9.03;100.00;96456.16;5011460;28;20405;-76
2024/03/23 05:17:22;;;;;;;27.95;13.82;;;;;;;8.98;100.00;96458.78;5011151;28;20746;-76
2024/03/23 05:19:49;;;;;;;31.38;14.27;;;;;;;8.86;100.00;96465.13;5011418;28;20412;-76
2024/03/23 05:22:15;;;;;;;34.20;14.77;;;;;;;8.81;100.00;96464.31;5013454;28;20415;-79
2024/03/23 05:24:41;;;;;;;30.58;13.65;;;;;;;8.76;100.00;96457.19;5012982;28;20401;-79
2024/03/23 05:27:07;;;;;;;30.50;14.93;;;;;;;8.78;100.00;96454.28;5009950;28;20407;-79
2024/03/23 05:29:33;;;;;;;41.70;15.93;;;;;;;8.69;100.00;96454.00;4993646;28;20489;-79
2024/03/23 05:32:01;;;;;;;38.85;16.58;;;;;;;8.65;100.00;96460.06;5000728;28;20401;-79
2024/03/23 05:34:28;;;;;;;41.88;17.00;;;;;;;8.67;100.00;96458.75;4997629;28;20964;-78
2024/03/23 05:36:55;;;;;;;39.33;16.75;;;;;;;8.63;100.00;96457.69;5013768;28;20411;-76
2024/03/23 05:39:22;;;;;;;45.65;17.40;;;;;;;8.56;100.00;96465.06;5011920;28;20404;-76
2024/03/23 05:41:48;;;;;;;43.03;16.55;;;;;;;8.51;100.00;96473.75;5011121;28;20489;-76
2024/03/23 05:44:15;;;;;;;38.80;16.33;;;;;;;8.47;100.00;96493.78;5011304;28;20468;-76
2024/03/23 05:46:41;;;;;;;45.20;17.92;;;;;;;8.45;100.00;96503.81;5011201;28;20397;-76
2024/03/23 05:49:09;;;;;;;49.25;17.27;;;;;;;8.45;100.00;96511.72;5011315;28;20524;-76
2024/03/23 05:51:35;;;;;;;43.40;17.52;;;;;;;8.47;100.00;96537.84;5011018;28;20836;-76
2024/03/23 05:54:01;;;;;;;41.55;16.13;;;;;;;8.39;100.00;96528.56;5011136;28;20427;-76
2024/03/23 05:56:27;;;;;;;41.95;15.48;;;;;;;8.35;100.00;96535.41;5011334;28;20757;-76
2024/03/23 05:58:53;;;;;;;35.47;13.02;;;;;;;8.28;100.00;96532.16;5011282;28;20924;-76
2024/03/23 06:01:19;;;;;;;38.47;12.10;;;;;;;8.26;100.00;96531.66;5012525;28;20402;-80
2024/03/23 06:03:46;;;;;;;30.23;11.10;;;;;;;8.25;100.00;96531.91;5018663;28;20409;-77
2024/03/23 06:06:13;;;;;;;37.70;11.45;;;;;;;8.13;100.00;96522.34;5013182;28;20452;-77
2024/03/23 06:08:40;;;;;;;34.30;11.82;;;;;;;8.04;100.00;96528.38;5018802;28;20447;-81
2024/03/23 06:11:07;;;;;;;34.50;11.57;;;;;;;8.03;100.00;96539.97;4997366;28;20485;-77
2024/03/23 06:13:33;;;;;;;34.22;11.07;;;;;;;7.94;100.00;96531.75;4994652;28;20453;-77
2024/03/23 06:16:00;;;;;;;34.45;10.18;;;;;;;7.90;100.00;96549.09;4994757;28;20403;-77
2024/03/23 06:18:26;;;;;;;27.23;8.55;;;;;;;7.97;100.00;96556.81;5007926;28;20528;-77
2024/03/23 06:20:52;;;;;;;24.55;8.00;;;;;;;7.89;100.00;96544.09;5014273;28;20408;-76
2024/03/23 06:23:20;;;;;;;22.03;7.40;;;;;;;7.82;100.00;96533.00;5014347;28;20489;-76
2024/03/23 06:25:46;;;;;;;18.80;6.47;;;;;;;7.73;100.00;96546.63;5013864;28;20924;-76
2024/03/23 06:28:12;;;;;;;16.10;6.53;;;;;;;7.70;100.00;96548.97;5005161;28;20459;-77
2024/03/23 06:30:38;;;;;;;13.47;5.37;;;;;;;7.70;100.00;96562.94;5010364;28;20469;-77
2024/03/23 06:33:05;;;;;;;13.93;5.30;;;;;;;7.68;100.00;96582.66;5004256;28;20417;-77
2024/03/23 06:35:31;;;;;;;11.10;4.65;;;;;;;7.69;100.00;96592.16;5007955;28;20404;-77
2024/03/23 06:38:00;;;;;;;9.10;4.00;;;;;;;7.61;100.00;96597.88;5012307;28;20487;-77
2024/03/23 06:40:28;;;;;;;7.72;3.50;;;;;;;7.62;100.00;96599.47;4998051;28;20418;-77
2024/03/23 06:42:54;;;;;;;13.52;3.25;;;;;;;7.59;100.00;96600.00;5004618;28;20451;-78
2024/03/23 06:45:23;;;;;;;4.70;2.83;;;;;;;7.61;100.00;96621.59;5016873;28;20409;-77
2024/03/23 06:47:49;;;;;;;3.80;2.05;;;;;;;7.56;100.00;96606.56;5014236;28;20459;-77
2024/03/23 06:50:15;;;;;;;2.58;2.00;;;;;;;7.70;100.00;96635.91;5020297;28;20424;-77
2024/03/23 06:52:42;;;;;;;3.67;2.13;;;;;;;7.74;100.00;96635.13;5009698;28;20982;-77
2024/03/23 06:55:08;;;;;;;2.60;1.80;;;;;;;7.78;100.00;96624.91;5003507;28;20768;-78
2024/03/23 06:57:36;;;;;;;3.17;1.75;;;;;;;7.71;100.00;96626.94;5013239;28;20401;-77
2024/03/23 07:00:02;;;;;;;1.67;1.58;;;;;;;7.71;100.00;96640.91;4997354;28;20914;-75
2024/03/23 07:02:28;;;;;;;2.20;1.60;;;;;;;7.62;100.00;96654.78;5004826;28;20924;-78
2024/03/23 07:04:54;;;;;;;2.97;1.57;;;;;;;7.65;100.00;96651.66;5008343;28;20408;-77
2024/03/23 07:07:21;;;;;;;1.58;1.38;;;;;;;7.72;100.00;96663.59;5004940;28;20429;-77
2024/03/23 07:09:47;;;;;;;2.33;1.73;;;;;;;7.76;100.00;96667.28;5004858;28;20406;-76
2024/03/23 07:12:14;;;;;;;1.50;1.40;;;;;;;7.84;100.00;96675.78;5004431;28;20402;-77
2024/03/23 07:14:41;;;;;;;1.48;1.20;;;;;;;7.87;100.00;96699.81;5001961;28;20878;-76
2024/03/23 07:17:07;;;;;;;1.50;1.40;;;;;;;7.82;100.00;96680.53;5000629;28;21124;-78
2024/03/23 07:19:33;;;;;;;1.45;1.35;;;;;;;7.91;100.00;96686.91;5013215;28;20455;-80
2024/03/23 07:21:59;;;;;;;1.50;1.40;;;;;;;8.04;100.00;96684.66;5006376;28;20891;-79
2024/03/23 07:24:25;;;;;;;1.30;1.20;;;;;;;8.09;100.00;96692.63;5010618;28;20400;-78
2024/03/23 07:26:54;;;;;;;1.30;1.20;;;;;;;8.34;100.00;96705.22;5007019;28;20487;-79
2024/03/23 07:29:20;;;;;;;1.30;1.20;;;;;;;8.35;100.00;96704.16;5006309;28;20415;-78
2024/03/23 07:31:47;;;;;;;1.63;1.23;;;;;;;8.37;100.00;96688.09;5004863;28;20402;-85
2024/03/23 07:34:13;;;;;;;1.20;1.13;;;;;;;8.31;100.00;96694.38;5018061;28;20447;-80
2024/03/23 07:36:40;;;;;;;1.50;1.13;;;;;;;8.24;100.00;96696.41;5009023;28;20448;-77
2024/03/23 07:39:07;;;;;;;3.20;1.38;;;;;;;8.16;100.00;96721.41;5003909;28;20405;-77
2024/03/23 07:41:35;;;;;;;1.45;1.35;;;;;;;8.12;100.00;96717.66;5007783;28;20423;-79
2024/03/23 07:44:01;;;;;;;1.50;1.20;;;;;;;8.05;100.00;96717.06;5006280;28;20492;-77
2024/03/23 07:46:27;;;;;;;1.40;1.20;;;;;;;8.03;100.00;96719.19;5010141;28;20408;-79
2024/03/23 07:48:55;;;;;;;1.30;1.20;;;;;;;7.98;100.00;96742.84;5007471;28;21162;-79
2024/03/23 07:51:22;;;;;;;5.00;1.60;;;;;;;7.88;100.00;96735.66;5007866;28;20883;-78
2024/03/23 07:53:48;;;;;;;2.05;1.20;;;;;;;7.78;100.00;96754.00;5000122;28;20406;-77
2024/03/23 07:56:15;;;;;;;2.40;1.40;;;;;;;7.65;100.00;96762.28;5004569;28;20968;-78
2024/03/23 07:58:42;;;;;;;1.50;1.40;;;;;;;7.47;100.00;96749.44;5009946;28;20405;-78
2024/03/23 08:01:10;;;;;;;1.85;1.65;;;;;;;7.33;100.00;96751.66;4994798;28;20900;-78
2024/03/23 08:03:37;;;;;;;2.20;1.75;;;;;;;7.28;100.00;96749.78;5005308;28;20405;-78
2024/03/23 08:06:12;;;;;;;2.60;2.08;;;;;;;7.21;100.00;96746.53;5003218;28;20397;-78
2024/03/23 08:08:39;;;;;;;3.55;2.00;;;;;;;7.17;100.00;96771.72;4995881;28;20402;-78
2024/03/23 08:11:05;;;;;;;2.70;1.95;;;;;;;7.08;100.00;96791.59;5003863;28;20960;-78
2024/03/23 08:13:31;;;;;;;3.58;2.15;;;;;;;7.09;100.00;96792.41;5013238;28;20388;-77
2024/03/23 08:15:58;;;;;;;5.65;2.30;;;;;;;7.16;100.00;96809.63;5000234;28;21107;-79
2024/03/23 08:18:24;;;;;;;3.83;2.58;;;;;;;7.14;100.00;96795.88;5007907;28;20404;-77
2024/03/23 08:20:57;;;;;;;2.97;2.37;;;;;;;7.22;100.00;96776.25;5010739;28;20502;-77
2024/03/23 08:23:26;;;;;;;3.45;2.60;;;;;;;7.26;100.00;96791.34;5013425;28;20407;-77
2024/03/23 08:25:53;;;;;;;4.30;2.83;;;;;;;7.34;100.00;96809.34;5013794;28;20520;-77
2024/03/23 08:28:19;;;;;;;2.88;2.45;;;;;;;7.37;100.00;96827.25;5011669;28;20405;-77
2024/03/23 08:30:45;;;;;;;2.95;2.50;;;;;;;7.45;100.00;96833.94;5002865;28;20413;-77
2024/03/23 08:33:12;;;;;;;3.20;2.28;;;;;;;7.56;100.00;96851.47;5007250;28;20489;-78
2024/03/23 08:35:39;;;;;;;3.03;2.38;;;;;;;7.60;100.00;96857.03;5007875;28;20408;-77
2024/03/23 08:38:07;;;;;;;2.22;2.03;;;;;;;7.80;100.00;96867.84;5001576;28;20891;-77
2024/03/23 08:40:34;;;;;;;3.17;2.13;;;;;;;7.94;100.00;96871.69;5000108;28;20426;-77
2024/03/23 08:43:00;;;;;;;2.25;1.85;;;;;;;8.07;100.00;96871.31;5001036;28;20432;-77
2024/03/23 08:45:26;;;;;;;1.77;1.60;;;;;;;8.26;100.00;96874.41;5000042;28;20464;-77
2024/03/23 08:47:52;;;;;;;3.13;1.50;;;;;;;8.57;100.00;96872.09;4995583;28;20435;-77
2024/03/23 08:50:18;;;;;;;2.00;1.80;;;;;;;8.73;100.00;96868.50;5003453;28;20437;-77
2024/03/23 08:52:45;;;;;;;3.75;1.80;;;;;;;8.86;100.00;96860.19;5000069;28;20410;-77
2024/03/23 08:55:11;;;;;;;2.28;1.52;;;;;;;8.70;100.00;96845.28;4999588;28;20749;-78
2024/03/23 08:57:39;;;;;;;3.55;1.90;;;;;;;8.82;100.00;96854.63;5002852;28;20492;-78
2024/03/23 09:00:08;;;;;;;2.25;1.70;;;;;;;8.97;100.00;96856.56;5012173;28;20416;-76
2024/03/23 09:02:34;;;;;;;2.47;1.42;;;;;;;9.11;100.00;96881.47;4994944;28;20916;-74
2024/03/23 09:05:04;;;;;;;2.75;1.70;;;;;;;9.09;100.00;96886.25;4992394;28;20900;-76
2024/03/23 09:07:30;;;;;;;2.15;1.60;;;;;;;8.96;100.00;96891.13;5002949;28;20408;-75
2024/03/23 09:09:56;;;;;;;3.45;1.80;;;;;;;8.95;100.00;96911.44;5000339;28;20402;-75
2024/03/23 09:12:23;;;;;;;4.53;2.13;;;;;;;8.79;100.00;96909.75;4992097;28;20434;-75
2024/03/23 09:14:51;;;;;;;5.75;2.25;;;;;;;8.62;100.00;96914.34;5011748;28;20397;-74
2024/03/23 09:17:18;;;;;;;5.15;2.40;;;;;;;8.40;100.00;96931.03;5002112;28;20402;-75
2024/03/23 09:19:44;;;;;;;14.32;3.90;;;;;;;8.34;100.00;96941.75;4997039;28;20569;-75
2024/03/23 09:22:10;;;;;;;5.25;2.83;;;;;;;8.55;100.00;96938.28;4992389;28;20405;-75
2024/03/23 09:24:36;;;;;;;10.75;3.40;;;;;;;8.91;100.00;96966.59;4992532;28;20438;-77
2024/03/23 09:27:03;;;;;;;8.82;3.28;;;;;;;9.17;100.00;96937.78;5004752;28;20400;-75
2024/03/23 09:29:29;;;;;;;6.22;2.70;;;;;;;9.49;100.00;96937.72;5000303;28;20405;-74
2024/03/23 09:31:57;;;;;;;8.30;2.72;;;;;;;9.92;100.00;96941.94;5011585;28;20408;-76
2024/03/23 09:34:25;;;;;;;6.93;2.78;;;;;;;10.10;100.00;96934.34;5003924;28;20392;-77
2024/03/23 09:36:52;;;;;;;10.30;4.10;;;;;;;10.24;100.00;96926.75;5010391;28;20408;-77
2024/03/23 09:39:19;;;;;;;11.38;3.20;;;;;;;10.29;100.00;96924.16;5011246;28;20409;-77
2024/03/23 09:41:45;;;;;;;10.90;3.20;;;;;;;10.17;100.00;96926.22;4998026;28;20783;-77
2024/03/23 09:44:11;;;;;;;8.30;3.40;;;;;;;10.01;100.00;96930.59;5006753;28;20402;-77
2024/03/23 09:46:39;;;;;;;7.00;3.17;;;;;;;9.93;100.00;96923.16;5006504;28;20404;-76
2024/03/23 09:49:08;;;;;;;10.18;3.42;;;;;;;9.81;100.00;96919.16;5005928;28;20431;-76
2024/03/23 09:51:36;;;;;;;11.43;3.13;;;;;;;9.81;100.00;96927.09;5005498;28;20889;-75
2024/03/23 09:54:02;;;;;;;11.45;3.38;;;;;;;9.98;100.00;96927.69;5009221;28;20411;-75
2024/03/23 09:56:28;;;;;;;6.53;3.30;;;;;;;10.32;100.00;96946.63;5012100;28;20879;-76
2024/03/23 09:59:01;;;;;;;12.10;3.65;;;;;;;10.58;100.00;96955.44;4997924;28;20441;-76
2024/03/23 10:01:29;;;;;;;15.63;4.78;;;;;;;10.40;100.00;96927.59;4995752;28;20422;-76
2024/03/23 10:03:55;;;;;;;11.88;4.35;;;;;;;10.13;100.00;96932.25;5003804;28;20497;-78
2024/03/23 10:06:24;;;;;;;14.80;4.13;;;;;;;9.55;100.00;96926.94;5008157;28;20405;-80
2024/03/23 10:08:51;;;;;;;9.25;4.10;;;;;;;9.36;100.00;96931.03;5008012;28;20411;-78
2024/03/23 10:11:19;;;;;;;14.10;4.15;;;;;;;9.46;100.00;96930.31;5012556;28;20401;-78
2024/03/23 10:13:48;;;;;;;10.95;4.38;;;;;;;9.58;100.00;96928.28;5007395;28;20393;-77
2024/03/23 10:16:22;;;;;;;11.13;3.93;;;;;;;9.45;100.00;96929.53;5007834;28;20415;-78
2024/03/23 10:18:49;;;;;;;11.00;3.92;;;;;;;9.20;100.00;96924.06;5005143;28;20410;-76
2024/03/23 10:21:16;;;;;;;7.53;3.65;;;;;;;9.07;100.00;96911.28;5006041;28;20425;-76
2024/03/23 10:23:44;;;;;;;9.85;3.90;;;;;;;8.99;100.00;96912.56;5010226;28;20405;-78
2024/03/23 10:26:18;;;;;;;10.77;3.85;;;;;;;8.95;100.00;96923.88;5007248;28;20789;-76
2024/03/23 10:29:00;;;;;;;11.80;4.47;;;;;;;8.98;100.00;96913.59;5004233;28;20460;-77
2024/03/23 10:31:27;;;;;;;10.80;3.90;;;;;;;9.01;100.00;96921.03;5005599;28;21025;-78
2024/03/23 10:33:54;;;;;;;14.40;4.40;;;;;;;8.94;100.00;96915.16;5003577;28;20493;-78
2024/03/23 10:36:21;;;;;;;6.68;3.70;;;;;;;8.87;100.00;96915.34;5011713;28;20397;-75
2024/03/23 10:38:49;;;;;;;12.95;4.63;;;;;;;9.02;100.00;96912.03;5010940;28;20403;-75
2024/03/23 10:41:16;;;;;;;12.10;4.45;;;;;;;9.09;100.00;96907.38;5013298;28;20850;-75
2024/03/23 10:43:45;;;;;;;9.88;4.28;;;;;;;9.08;100.00;96920.81;5002141;28;20444;-77
2024/03/23 10:46:11;;;;;;;12.77;4.80;;;;;;;8.82;100.00;96911.88;5006653;28;20414;-76
2024/03/23 10:48:38;;;;;;;10.32;4.50;;;;;;;8.58;100.00;96939.63;5005274;28;20401;-76
2024/03/23 10:51:07;;;;;;;9.10;4.10;;;;;;;8.38;100.00;96951.56;5003472;28;20409;-76
2024/03/23 10:53:34;;;;;;;13.00;4.88;;;;;;;8.14;100.00;96955.47;5004971;28;20410;-75
2024/03/23 10:56:02;;;;;;;13.77;5.80;;;;;;;7.86;100.00;96997.81;5006524;28;20407;-78
2024/03/23 10:58:30;;;;;;;14.53;4.70;;;;;;;7.33;100.00;97014.94;5000506;28;20449;-77
2024/03/23 11:00:58;;;;;;;14.45;4.07;;;;;;;6.82;100.00;97034.31;5005197;28;20420;-75
2024/03/23 11:03:31;;;;;;;7.70;4.03;;;;;;;6.23;100.00;97031.09;5007446;28;20406;-73
2024/03/23 11:05:58;;;;;;;11.35;4.57;;;;;;;6.00;100.00;97023.22;4994047;28;20495;-76
2024/03/23 11:08:35;;;;;;;11.73;4.45;;;;;;;5.84;100.00;97015.00;4993751;28;20430;-74
2024/03/23 11:11:20;;;;;;;9.15;4.57;;;;;;;6.05;100.00;97003.13;5007604;28;20396;-75
2024/03/23 11:13:49;;;;;;;11.38;5.60;;;;;;;6.76;100.00;97007.13;5013483;28;20401;-74
2024/03/23 11:16:23;;;;;;;16.87;5.77;;;;;;;7.50;100.00;97005.19;5006996;28;20406;-76
2024/03/23 11:18:50;;;;;;;6.55;4.10;;;;;;;8.14;100.00;96995.00;5002769;28;20822;-75
2024/03/23 11:21:49;;;;;;;4.93;2.92;;;;;;;8.49;100.00;97002.59;5008661;28;20939;-76
2024/03/23 11:24:16;;;;;;;11.77;3.20;;;;;;;8.95;100.00;96985.38;5006531;28;20434;-76
2024/03/23 11:26:43;;;;;;;5.32;3.20;;;;;;;9.37;100.00;96988.13;4993902;28;20406;-76
2024/03/23 11:29:10;;;;;;;5.65;2.60;;;;;;;9.86;100.00;96991.34;4993566;28;20461;-75